Time;durP1;ratioP1;P1;durP2;ratioP2;P2;SDS_P1;SDS_P2;PMS_P1;PMS_P2;Temp;Humidity;BMP_temperature;BMP_pressure;BME280_temperature;BME280_humidity;BME280_pressure;Samples;Min_cycle;Max_cycle;Signal;HPM_P1;HPM_P2
2022/09/15 00:01:59;;;;;;;8.55;2.72;;;14.80;99.90;;;;;;4990172;28;20038;-72
2022/09/15 00:04:24;;;;;;;8.40;2.97;;;14.80;99.90;;;;;;5006300;28;20121;-72
2022/09/15 00:06:51;;;;;;;7.32;2.72;;;14.80;99.90;;;;;;5024210;28;20040;-72
2022/09/15 00:09:18;;;;;;;11.00;2.85;;;14.80;99.90;;;;;;4997683;28;20041;-73
2022/09/15 00:11:43;;;;;;;8.90;2.90;;;14.80;99.90;;;;;;5010881;28;20431;-71
2022/09/15 00:14:09;;;;;;;11.00;3.33;;;14.80;99.90;;;;;;5017585;28;20046;-73
2022/09/15 00:16:36;;;;;;;10.23;3.22;;;14.80;99.90;;;;;;5006093;28;20042;-73
2022/09/15 00:19:02;;;;;;;11.65;3.50;;;14.80;99.90;;;;;;5025452;28;20054;-71
2022/09/15 00:21:30;;;;;;;9.75;4.38;;;14.80;99.90;;;;;;5019944;28;20120;-72
2022/09/15 00:23:58;;;;;;;10.32;4.03;;;14.80;99.90;;;;;;5002926;28;20077;-72
2022/09/15 00:26:26;;;;;;;12.95;4.18;;;14.80;99.90;;;;;;5028504;28;20041;-72
2022/09/15 00:28:52;;;;;;;9.63;3.50;;;14.80;99.90;;;;;;5025705;28;20547;-72
2022/09/15 00:31:20;;;;;;;9.48;3.40;;;14.80;99.90;;;;;;5016570;28;20500;-71
2022/09/15 00:33:48;;;;;;;9.75;3.47;;;14.80;99.90;;;;;;5024478;28;20559;-71
2022/09/15 00:36:15;;;;;;;8.63;3.35;;;14.80;99.90;;;;;;5010263;28;20034;-72
2022/09/15 00:38:42;;;;;;;9.82;3.70;;;14.80;99.90;;;;;;5026866;28;20045;-73
2022/09/15 00:41:10;;;;;;;10.43;3.63;;;14.80;99.90;;;;;;5025308;28;20041;-71
2022/09/15 00:43:54;;;;;;;10.38;3.33;;;14.80;99.90;;;;;;5028300;28;20546;-71
2022/09/15 00:46:28;;;;;;;10.13;3.47;;;14.80;99.90;;;;;;5018834;28;20483;-71
2022/09/15 00:49:15;;;;;;;13.52;4.05;;;14.80;99.90;;;;;;5024844;28;20080;-72
2022/09/15 00:51:56;;;;;;;8.52;3.45;;;14.80;99.90;;;;;;5023705;28;20038;-72
2022/09/15 00:54:30;;;;;;;8.85;3.53;;;14.80;99.90;;;;;;5012298;28;20062;-72
2022/09/15 00:56:59;;;;;;;9.43;3.20;;;14.80;99.90;;;;;;5005985;28;20057;-72
2022/09/15 00:59:28;;;;;;;10.50;2.78;;;14.80;99.90;;;;;;5046491;28;20045;-71
2022/09/15 01:02:02;;;;;;;9.43;2.30;;;14.80;99.90;;;;;;5022265;28;20452;-73
2022/09/15 01:04:27;;;;;;;8.07;2.25;;;14.80;99.90;;;;;;5022870;28;20234;-72
2022/09/15 01:06:57;;;;;;;6.60;2.00;;;14.80;99.90;;;;;;5009072;28;20203;-73
2022/09/15 01:09:32;;;;;;;6.82;2.00;;;14.90;99.90;;;;;;5018562;28;20046;-73
2022/09/15 01:11:57;;;;;;;10.90;2.20;;;14.90;99.90;;;;;;5024690;28;20043;-73
2022/09/15 01:14:23;;;;;;;6.88;2.17;;;14.90;99.90;;;;;;5007857;28;20125;-72
2022/09/15 01:17:27;;;;;;;7.60;2.25;;;14.90;99.90;;;;;;5018724;28;20037;-72
2022/09/15 01:19:57;;;;;;;9.40;2.90;;;14.90;99.90;;;;;;5028982;28;20055;-72
2022/09/15 01:22:55;;;;;;;9.65;2.67;;;14.90;99.90;;;;;;5031069;28;20444;-72
2022/09/15 01:25:40;;;;;;;10.23;2.63;;;14.90;99.90;;;;;;4993120;28;20054;-72
2022/09/15 01:28:54;;;;;;;8.30;2.70;;;14.90;99.90;;;;;;5013730;28;20069;-71
2022/09/15 01:31:26;;;;;;;12.43;2.97;;;14.90;99.90;;;;;;5029012;28;20288;-71
2022/09/15 01:34:16;;;;;;;6.78;2.10;;;14.90;99.90;;;;;;5012533;28;20038;-71
2022/09/15 01:36:56;;;;;;;9.07;2.03;;;14.90;99.90;;;;;;5028270;28;20046;-72
2022/09/15 01:39:29;;;;;;;7.10;1.80;;;15.00;99.90;;;;;;5020959;28;20046;-72
2022/09/15 01:42:04;;;;;;;7.13;1.75;;;14.80;99.90;;;;;;5026609;28;20061;-72
2022/09/15 01:44:36;;;;;;;9.40;1.90;;;14.90;99.90;;;;;;5024530;28;20077;-72
2022/09/15 01:47:06;;;;;;;13.00;1.92;;;14.90;99.90;;;;;;5012580;28;20528;-72
2022/09/15 01:49:45;;;;;;;7.65;1.60;;;15.00;99.90;;;;;;5019567;28;20054;-72
2022/09/15 01:52:13;;;;;;;6.95;1.52;;;15.00;99.90;;;;;;5023705;28;20072;-72
2022/09/15 01:54:44;;;;;;;7.47;1.38;;;14.90;99.90;;;;;;5008710;28;20079;-72
2022/09/15 01:57:10;;;;;;;10.30;1.85;;;14.90;99.90;;;;;;5010702;28;20045;-72
2022/09/15 01:59:36;;;;;;;7.32;1.50;;;15.00;99.90;;;;;;5020574;28;20124;-71
2022/09/15 02:02:14;;;;;;;7.72;1.75;;;15.00;99.90;;;;;;5000001;28;20038;-72
2022/09/15 02:04:53;;;;;;;8.32;1.52;;;15.00;99.90;;;;;;5014810;28;20052;-71
2022/09/15 02:07:33;;;;;;;8.13;1.50;;;15.00;99.90;;;;;;5006368;28;20049;-72
2022/09/15 02:10:20;;;;;;;8.05;1.33;;;15.00;99.90;;;;;;5003421;28;20334;-72
2022/09/15 02:13:04;;;;;;;8.05;2.28;;;15.00;99.90;;;;;;5028044;28;20175;-73
2022/09/15 02:15:36;;;;;;;7.47;1.70;;;15.00;99.90;;;;;;5011452;28;20596;-75
2022/09/15 02:18:07;;;;;;;9.13;2.05;;;14.90;99.90;;;;;;5020146;28;20069;-74
2022/09/15 02:20:49;;;;;;;8.80;1.75;;;14.70;99.90;;;;;;5019655;28;20056;-74
2022/09/15 02:23:42;;;;;;;7.82;1.65;;;14.60;99.90;;;;;;5025299;28;20614;-74
2022/09/15 02:26:15;;;;;;;8.50;2.00;;;14.50;99.90;;;;;;5018455;28;20099;-74
2022/09/15 02:28:43;;;;;;;9.15;2.10;;;14.30;99.90;;;;;;5021728;28;20052;-74
2022/09/15 02:31:14;;;;;;;9.70;1.90;;;14.20;99.90;;;;;;5015511;28;20076;-73
2022/09/15 02:33:43;;;;;;;9.07;2.08;;;14.20;99.90;;;;;;5027058;28;20042;-74
2022/09/15 02:36:12;;;;;;;10.25;2.00;;;14.20;99.90;;;;;;5024763;28;20504;-74
2022/09/15 02:38:44;;;;;;;9.80;1.77;;;14.10;99.90;;;;;;5027412;28;20056;-73
2022/09/15 02:41:12;;;;;;;10.80;2.03;;;14.10;99.90;;;;;;5023700;28;20046;-73
2022/09/15 02:43:48;;;;;;;9.38;1.95;;;14.10;99.90;;;;;;5008567;28;20370;-73
2022/09/15 02:46:15;;;;;;;7.63;1.73;;;14.00;99.90;;;;;;5029676;28;20037;-72
2022/09/15 02:48:41;;;;;;;10.13;1.70;;;14.00;99.90;;;;;;5011340;28;20055;-72
2022/09/15 02:51:06;;;;;;;9.90;1.80;;;13.90;99.90;;;;;;5006860;28;20508;-73
2022/09/15 02:53:32;;;;;;;9.20;1.65;;;13.80;99.90;;;;;;5020681;28;20152;-73
2022/09/15 02:55:58;;;;;;;6.18;1.67;;;13.80;99.90;;;;;;5004073;28;20053;-73
2022/09/15 02:58:24;;;;;;;9.50;1.90;;;13.70;99.90;;;;;;5026577;28;20514;-73
2022/09/15 03:00:52;;;;;;;8.68;1.98;;;13.70;99.90;;;;;;4993743;28;20045;-72
2022/09/15 03:03:20;;;;;;;7.32;1.50;;;13.80;99.90;;;;;;5007589;28;20111;-73
2022/09/15 03:05:46;;;;;;;8.90;2.00;;;13.70;99.90;;;;;;4999545;28;20485;-72
2022/09/15 03:08:13;;;;;;;9.10;1.80;;;13.80;99.90;;;;;;5012993;28;20085;-72
2022/09/15 03:10:38;;;;;;;10.65;1.88;;;13.80;99.90;;;;;;5008796;28;20500;-73
2022/09/15 03:13:04;;;;;;;11.15;2.03;;;13.80;99.90;;;;;;5012355;28;20041;-73
2022/09/15 03:15:30;;;;;;;9.73;1.70;;;13.80;99.90;;;;;;5006777;28;20038;-72
2022/09/15 03:17:55;;;;;;;9.82;1.67;;;13.80;99.90;;;;;;4994801;28;20040;-72
2022/09/15 03:20:29;;;;;;;8.02;1.95;;;13.80;99.90;;;;;;5012256;28;20045;-72
2022/09/15 03:22:55;;;;;;;8.77;1.80;;;13.80;99.90;;;;;;5026340;28;20121;-72
2022/09/15 03:25:20;;;;;;;8.07;1.70;;;13.80;99.90;;;;;;5013531;28;20037;-73
2022/09/15 03:27:46;;;;;;;8.50;1.70;;;13.90;99.90;;;;;;5017761;28;20037;-73
2022/09/15 03:30:13;;;;;;;8.98;2.20;;;13.90;99.90;;;;;;5017766;28;20042;-73
2022/09/15 03:32:39;;;;;;;11.55;2.00;;;13.90;99.90;;;;;;5024882;28;20129;-73
2022/09/15 03:35:05;;;;;;;8.38;1.80;;;13.90;99.90;;;;;;5005885;28;20479;-73
2022/09/15 03:37:32;;;;;;;9.75;2.15;;;13.90;99.90;;;;;;5010307;28;20049;-72
2022/09/15 03:39:58;;;;;;;9.52;1.88;;;14.00;99.90;;;;;;5018103;28;20661;-72
2022/09/15 03:42:24;;;;;;;11.32;2.03;;;14.00;99.90;;;;;;5007867;28;20129;-72
2022/09/15 03:44:49;;;;;;;10.18;1.73;;;14.00;99.90;;;;;;5026368;28;20120;-72
2022/09/15 03:47:15;;;;;;;7.63;1.80;;;14.00;99.90;;;;;;5023402;28;20721;-73
2022/09/15 03:49:41;;;;;;;10.85;1.80;;;14.00;99.90;;;;;;5020753;28;20073;-73
2022/09/15 03:52:07;;;;;;;10.05;1.77;;;14.00;99.90;;;;;;5022912;28;20464;-73
2022/09/15 03:54:34;;;;;;;7.60;1.63;;;13.90;99.90;;;;;;5024471;28;20141;-73
2022/09/15 03:57:00;;;;;;;8.10;1.70;;;14.00;99.90;;;;;;5024528;28;20060;-72
2022/09/15 03:59:25;;;;;;;8.02;1.85;;;14.00;99.90;;;;;;5025081;28;20041;-72
2022/09/15 04:01:51;;;;;;;7.85;1.90;;;14.00;99.90;;;;;;5025670;28;20081;-72
2022/09/15 04:04:17;;;;;;;7.55;1.80;;;14.00;99.90;;;;;;5004113;28;20038;-73
2022/09/15 04:06:43;;;;;;;8.88;2.50;;;14.00;99.90;;;;;;5014632;28;20215;-73
2022/09/15 04:09:09;;;;;;;7.80;1.80;;;14.00;99.90;;;;;;5006068;28;20052;-73
2022/09/15 04:11:36;;;;;;;9.15;1.98;;;14.00;99.90;;;;;;5019525;28;20049;-73
2022/09/15 04:14:02;;;;;;;9.52;2.03;;;14.00;99.90;;;;;;5010238;28;20116;-73
2022/09/15 04:16:28;;;;;;;7.38;1.80;;;14.00;99.90;;;;;;5023396;28;20045;-72
2022/09/15 04:18:54;;;;;;;10.02;2.00;;;14.00;99.90;;;;;;5006038;28;20041;-72
2022/09/15 04:21:22;;;;;;;8.18;1.85;;;14.00;99.90;;;;;;4989918;28;20084;-72
2022/09/15 04:23:49;;;;;;;9.02;2.30;;;14.00;99.90;;;;;;5027064;28;20037;-72
2022/09/15 04:26:28;;;;;;;11.77;2.10;;;14.00;99.90;;;;;;5028501;28;20059;-72
2022/09/15 04:28:54;;;;;;;10.25;2.17;;;13.90;99.90;;;;;;5026920;28;21417;-72
2022/09/15 04:31:20;;;;;;;9.00;1.80;;;14.00;99.90;;;;;;5016685;28;20144;-72
2022/09/15 04:33:46;;;;;;;7.20;2.00;;;14.00;99.90;;;;;;5015015;28;20047;-72
2022/09/15 04:36:18;;;;;;;9.82;2.03;;;14.00;99.90;;;;;;5001722;28;20492;-73
2022/09/15 04:38:44;;;;;;;11.50;2.15;;;14.00;99.90;;;;;;5010068;28;20034;-72
2022/09/15 04:41:10;;;;;;;9.00;2.00;;;13.90;99.90;;;;;;4994709;28;20563;-72
2022/09/15 04:43:36;;;;;;;10.48;2.35;;;14.00;99.90;;;;;;5022954;28;20038;-73
2022/09/15 04:46:02;;;;;;;8.93;1.98;;;13.90;99.90;;;;;;5006316;28;20041;-72
2022/09/15 04:48:29;;;;;;;10.70;1.83;;;13.90;99.90;;;;;;5022656;28;20052;-72
2022/09/15 04:51:00;;;;;;;15.82;2.05;;;13.90;99.90;;;;;;5006945;28;20500;-72
2022/09/15 04:53:26;;;;;;;10.20;2.08;;;13.90;99.90;;;;;;5026214;28;20061;-72
2022/09/15 04:55:52;;;;;;;11.52;2.00;;;13.90;99.90;;;;;;4991501;28;20104;-72
2022/09/15 04:58:18;;;;;;;9.55;1.90;;;13.90;99.90;;;;;;5016878;28;20450;-73
2022/09/15 05:00:44;;;;;;;12.73;2.20;;;13.80;99.90;;;;;;5009574;28;20042;-73
2022/09/15 05:03:12;;;;;;;8.23;1.75;;;13.80;99.90;;;;;;5014470;28;20463;-73
2022/09/15 05:05:38;;;;;;;10.07;2.00;;;13.80;99.90;;;;;;5044628;28;20044;-73
2022/09/15 05:08:04;;;;;;;8.55;2.05;;;13.80;99.90;;;;;;4990906;28;20044;-73
2022/09/15 05:10:30;;;;;;;10.57;2.15;;;13.80;99.90;;;;;;5005160;28;20041;-73
2022/09/15 05:12:56;;;;;;;5.50;1.65;;;13.80;99.90;;;;;;5021139;28;20045;-73
2022/09/15 05:15:23;;;;;;;11.38;2.20;;;13.80;99.90;;;;;;5031155;28;20064;-73
2022/09/15 05:17:48;;;;;;;7.95;1.92;;;13.80;99.90;;;;;;5009874;28;20045;-73
2022/09/15 05:20:14;;;;;;;8.80;2.00;;;13.80;99.90;;;;;;4998471;28;20042;-73
2022/09/15 05:22:40;;;;;;;9.30;2.13;;;13.80;99.90;;;;;;5006921;28;20049;-73
2022/09/15 05:25:06;;;;;;;12.88;2.35;;;13.80;99.90;;;;;;5029229;28;20403;-73
2022/09/15 05:27:33;;;;;;;11.82;2.30;;;13.10;99.90;;;;;;5024735;28;20412;-72
2022/09/15 05:29:59;;;;;;;11.43;2.20;;;13.80;99.90;;;;;;5031425;28;20125;-72
2022/09/15 05:32:25;;;;;;;11.10;2.20;;;13.70;99.90;;;;;;5010430;28;20229;-72
2022/09/15 05:34:51;;;;;;;11.80;2.30;;;13.80;99.90;;;;;;5015067;28;20148;-72
2022/09/15 05:37:16;;;;;;;11.40;2.22;;;13.80;99.90;;;;;;5014018;28;20112;-72
2022/09/15 05:39:42;;;;;;;9.45;2.40;;;13.80;99.90;;;;;;5009336;28;20614;-72
2022/09/15 05:42:08;;;;;;;11.90;2.20;;;13.80;99.90;;;;;;5009244;28;20041;-72
2022/09/15 05:44:34;;;;;;;7.97;2.35;;;13.80;99.90;;;;;;5025544;28;20500;-72
2022/09/15 05:47:00;;;;;;;8.50;1.85;;;13.80;99.90;;;;;;5015039;28;20069;-72
2022/09/15 05:49:28;;;;;;;9.90;2.05;;;13.80;99.90;;;;;;5029806;28;20530;-72
2022/09/15 05:51:54;;;;;;;10.05;2.50;;;13.80;99.90;;;;;;5011117;28;20127;-72
2022/09/15 05:54:19;;;;;;;9.45;1.65;;;13.90;99.90;;;;;;5030586;28;20180;-72
2022/09/15 05:56:45;;;;;;;8.27;1.80;;;13.80;99.90;;;;;;5014678;28;20519;-72
2022/09/15 05:59:11;;;;;;;11.45;1.85;;;13.90;99.90;;;;;;5012813;28;20043;-72
2022/09/15 06:01:37;;;;;;;10.20;2.00;;;13.90;99.90;;;;;;5031170;28;20041;-72
2022/09/15 06:04:03;;;;;;;8.63;2.08;;;13.90;99.90;;;;;;5030021;28;20491;-72
2022/09/15 06:06:30;;;;;;;8.80;2.05;;;13.90;99.90;;;;;;5013269;28;20041;-72
2022/09/15 06:08:57;;;;;;;10.13;2.28;;;13.90;99.90;;;;;;5028349;28;20041;-72
2022/09/15 06:11:28;;;;;;;9.32;1.92;;;13.90;99.90;;;;;;5028211;28;20083;-72
2022/09/15 06:13:54;;;;;;;11.10;2.60;;;14.00;99.90;;;;;;5030571;28;20048;-72
2022/09/15 06:16:22;;;;;;;9.82;2.10;;;14.00;99.90;;;;;;4996973;28;20128;-72
2022/09/15 06:18:51;;;;;;;8.68;1.98;;;14.10;99.90;;;;;;5013295;28;20072;-73
2022/09/15 06:21:21;;;;;;;6.70;2.00;;;14.10;99.90;;;;;;5016458;28;20038;-73
2022/09/15 06:24:05;;;;;;;11.57;2.15;;;14.20;99.90;;;;;;5030687;28;20044;-73
2022/09/15 06:26:32;;;;;;;9.70;2.10;;;14.20;99.90;;;;;;5028473;28;20500;-73
2022/09/15 06:28:59;;;;;;;8.65;1.90;;;14.30;99.90;;;;;;5027248;28;20049;-73
2022/09/15 06:31:27;;;;;;;9.38;2.03;;;14.30;99.90;;;;;;5027355;28;20499;-73
2022/09/15 06:33:55;;;;;;;8.82;2.05;;;14.40;99.90;;;;;;5031448;28;20042;-73
2022/09/15 06:36:23;;;;;;;11.18;2.20;;;14.40;99.90;;;;;;5026723;28;20049;-73
2022/09/15 06:38:48;;;;;;;6.97;1.70;;;14.50;99.90;;;;;;5018703;28;20113;-73
2022/09/15 06:41:15;;;;;;;11.85;2.00;;;14.50;99.90;;;;;;5026827;28;20120;-73
2022/09/15 06:43:41;;;;;;;10.27;1.80;;;14.60;99.90;;;;;;5031387;28;20112;-73
2022/09/15 06:46:12;;;;;;;6.97;2.03;;;14.70;99.90;;;;;;5029890;28;20472;-73
2022/09/15 06:48:39;;;;;;;9.07;1.52;;;14.70;99.90;;;;;;5029456;28;20068;-73
2022/09/15 06:51:06;;;;;;;10.57;2.13;;;14.80;99.90;;;;;;5028670;28;20669;-73
2022/09/15 06:53:35;;;;;;;13.18;2.17;;;14.80;99.90;;;;;;5013369;28;20047;-73
2022/09/15 06:56:05;;;;;;;6.47;1.52;;;14.90;99.90;;;;;;5029627;28;20397;-73
2022/09/15 06:58:34;;;;;;;8.60;1.90;;;14.90;99.90;;;;;;5029773;28;20050;-73
2022/09/15 07:01:02;;;;;;;6.15;1.70;;;14.90;99.90;;;;;;5010881;28;20037;-72
2022/09/15 07:03:28;;;;;;;6.45;1.40;;;14.90;99.90;;;;;;4980311;28;20500;-72
2022/09/15 07:05:54;;;;;;;8.43;1.50;;;15.00;99.90;;;;;;5012668;28;20073;-72
2022/09/15 07:08:20;;;;;;;7.50;1.60;;;15.00;99.90;;;;;;5012539;28;20115;-72
2022/09/15 07:10:45;;;;;;;7.45;1.70;;;15.00;99.90;;;;;;5029559;28;20037;-73
2022/09/15 07:13:11;;;;;;;6.97;1.63;;;15.00;99.90;;;;;;5010939;28;20042;-71
2022/09/15 07:15:38;;;;;;;9.77;1.50;;;15.10;99.90;;;;;;4996446;28;20033;-72
2022/09/15 07:18:05;;;;;;;7.18;1.48;;;15.10;99.90;;;;;;5030842;28;20140;-72
2022/09/15 07:20:31;;;;;;;7.55;1.67;;;15.20;99.90;;;;;;5028920;28;20049;-72
2022/09/15 07:22:57;;;;;;;9.65;2.05;;;15.30;99.90;;;;;;5026184;28;20518;-72
2022/09/15 07:25:23;;;;;;;4.30;1.27;;;15.50;99.90;;;;;;4996310;28;20042;-72
2022/09/15 07:27:48;;;;;;;5.80;1.52;;;15.60;99.90;;;;;;5029291;28;20045;-72
2022/09/15 07:30:14;;;;;;;7.47;1.55;;;15.70;99.90;;;;;;5029073;28;20527;-72
2022/09/15 07:32:40;;;;;;;8.60;1.92;;;15.80;99.90;;;;;;5012581;28;20550;-72
2022/09/15 07:35:06;;;;;;;5.70;1.58;;;15.80;99.90;;;;;;4991150;28;20050;-71
2022/09/15 07:37:32;;;;;;;7.55;1.50;;;15.80;99.90;;;;;;5003759;28;20496;-72
2022/09/15 07:39:58;;;;;;;9.48;1.70;;;15.80;99.90;;;;;;5029207;28;20508;-72
2022/09/15 07:42:24;;;;;;;8.43;1.83;;;15.90;99.90;;;;;;5021709;28;20040;-72
2022/09/15 07:44:50;;;;;;;6.10;1.52;;;15.90;99.90;;;;;;4991789;28;20091;-72
2022/09/15 07:47:16;;;;;;;5.45;1.75;;;16.00;99.90;;;;;;5007142;28;20041;-72
2022/09/15 07:49:42;;;;;;;7.78;1.77;;;16.00;99.90;;;;;;5028708;28;20042;-72
2022/09/15 07:52:08;;;;;;;7.97;1.92;;;16.10;99.90;;;;;;4995987;28;20119;-73
2022/09/15 07:54:34;;;;;;;5.43;1.30;;;16.00;99.90;;;;;;5010999;28;20120;-72
2022/09/15 07:57:00;;;;;;;7.50;1.63;;;16.00;99.90;;;;;;5028560;28;20053;-72
2022/09/15 07:59:26;;;;;;;9.50;1.92;;;16.00;99.90;;;;;;4995069;28;20049;-72
2022/09/15 08:01:52;;;;;;;10.07;2.13;;;15.90;99.90;;;;;;5022297;28;20041;-72
2022/09/15 08:04:18;;;;;;;10.23;2.20;;;15.90;99.90;;;;;;4996165;28;20038;-72
2022/09/15 08:06:44;;;;;;;8.63;1.83;;;15.80;99.90;;;;;;5001180;28;20040;-72
2022/09/15 08:09:13;;;;;;;6.90;1.98;;;15.80;99.90;;;;;;5027920;28;20081;-72
2022/09/15 08:11:40;;;;;;;8.50;1.95;;;15.80;99.90;;;;;;5010932;28;20045;-72
2022/09/15 08:14:07;;;;;;;7.53;1.60;;;15.90;99.90;;;;;;5028390;28;20045;-72
2022/09/15 08:16:33;;;;;;;9.05;1.63;;;15.90;99.90;;;;;;5024717;28;20148;-72
2022/09/15 08:18:59;;;;;;;10.02;2.00;;;16.00;99.90;;;;;;5014140;28;20037;-71
2022/09/15 08:21:26;;;;;;;8.23;1.80;;;16.00;99.90;;;;;;5026449;28;20041;-72
2022/09/15 08:23:54;;;;;;;8.95;1.88;;;16.10;99.90;;;;;;5027619;28;20040;-72
2022/09/15 08:26:21;;;;;;;6.13;1.70;;;16.20;99.90;;;;;;5023809;28;20053;-72
2022/09/15 08:28:47;;;;;;;7.65;1.50;;;16.20;99.90;;;;;;5027815;28;20407;-72
2022/09/15 08:31:14;;;;;;;6.63;1.60;;;16.30;99.90;;;;;;5033061;28;20126;-72
2022/09/15 08:33:40;;;;;;;7.72;1.95;;;16.40;99.90;;;;;;5028790;28;20030;-73
2022/09/15 08:36:11;;;;;;;8.15;1.65;;;16.40;99.90;;;;;;5032207;28;20048;-72
2022/09/15 08:38:43;;;;;;;8.90;1.90;;;16.40;99.90;;;;;;5031695;28;20042;-72
2022/09/15 08:41:31;;;;;;;8.30;1.58;;;16.50;99.90;;;;;;5031852;28;20092;-72
2022/09/15 08:43:59;;;;;;;8.52;2.13;;;16.50;99.90;;;;;;5019587;28;20107;-72
2022/09/15 08:46:59;;;;;;;9.02;1.98;;;16.50;99.90;;;;;;5033710;28;20049;-71
2022/09/15 08:49:38;;;;;;;8.95;2.10;;;16.50;99.90;;;;;;5015588;28;20041;-71
2022/09/15 08:52:15;;;;;;;7.72;1.80;;;16.50;99.90;;;;;;5032224;28;20041;-74
2022/09/15 08:54:41;;;;;;;10.90;2.13;;;16.40;99.90;;;;;;5030070;28;20038;-72
2022/09/15 08:57:15;;;;;;;8.57;1.80;;;16.40;99.90;;;;;;5032031;28;20038;-72
2022/09/15 08:59:41;;;;;;;7.32;1.58;;;16.40;99.90;;;;;;5014351;28;20056;-72
2022/09/15 09:02:37;;;;;;;10.32;2.10;;;16.50;99.90;;;;;;5015089;28;20037;-72
2022/09/15 09:05:40;;;;;;;7.13;1.48;;;16.50;99.90;;;;;;5001965;28;20041;-72
2022/09/15 09:08:06;;;;;;;8.77;1.80;;;16.50;99.90;;;;;;5033179;28;20041;-73
2022/09/15 09:10:42;;;;;;;8.63;1.77;;;16.50;99.90;;;;;;5009826;28;20068;-73
2022/09/15 09:13:08;;;;;;;10.45;1.98;;;16.50;99.90;;;;;;4999124;28;20042;-73
2022/09/15 09:15:45;;;;;;;9.68;1.85;;;16.40;99.90;;;;;;5030068;28;20049;-72
2022/09/15 09:19:02;;;;;;;7.43;1.83;;;16.40;99.90;;;;;;5031918;28;20045;-71
2022/09/15 09:21:45;;;;;;;9.75;1.80;;;16.40;99.90;;;;;;5010062;28;20054;-72
2022/09/15 09:24:16;;;;;;;9.13;1.88;;;16.20;99.90;;;;;;4975987;28;21375;-71
2022/09/15 09:26:47;;;;;;;8.80;1.92;;;16.10;99.90;;;;;;5009129;28;20049;-73
2022/09/15 09:29:19;;;;;;;7.03;1.58;;;16.10;99.90;;;;;;5031615;28;20130;-73
2022/09/15 09:31:48;;;;;;;8.57;1.85;;;16.00;99.90;;;;;;5031465;28;20500;-73
2022/09/15 09:34:35;;;;;;;7.50;1.65;;;15.90;99.90;;;;;;5031451;28;20045;-73
2022/09/15 09:37:10;;;;;;;7.20;1.60;;;15.90;99.90;;;;;;5025784;28;20445;-72
2022/09/15 09:39:37;;;;;;;9.60;1.98;;;15.90;99.90;;;;;;5027848;28;20393;-73
2022/09/15 09:42:04;;;;;;;8.80;2.10;;;15.80;99.90;;;;;;5014464;28;20038;-72
2022/09/15 09:44:31;;;;;;;8.43;2.10;;;15.70;99.90;;;;;;5014511;28;20514;-72
2022/09/15 09:46:58;;;;;;;10.32;2.13;;;15.60;99.90;;;;;;5028433;28;20113;-73
2022/09/15 09:49:25;;;;;;;7.20;2.08;;;15.60;99.90;;;;;;5025714;28;20099;-74
2022/09/15 09:51:53;;;;;;;5.43;1.48;;;15.60;99.90;;;;;;5032428;28;20400;-73
2022/09/15 09:54:26;;;;;;;8.43;1.70;;;15.60;99.90;;;;;;5031331;28;20045;-73
2022/09/15 09:57:15;;;;;;;6.45;1.45;;;15.70;99.90;;;;;;5005971;28;20092;-76
2022/09/15 09:59:44;;;;;;;7.93;1.90;;;15.80;99.90;;;;;;5015841;28;20045;-72
2022/09/15 10:02:10;;;;;;;8.80;2.00;;;15.80;99.90;;;;;;5014266;28;20049;-73
2022/09/15 10:04:46;;;;;;;7.57;1.73;;;15.90;99.90;;;;;;5014731;28;20037;-73
2022/09/15 10:07:13;;;;;;;8.60;1.90;;;16.00;99.90;;;;;;5029756;28;20033;-73
2022/09/15 10:09:56;;;;;;;6.85;1.70;;;16.00;99.90;;;;;;5029684;28;20077;-72
2022/09/15 10:12:27;;;;;;;8.95;1.90;;;16.10;99.90;;;;;;5030662;28;20136;-73
2022/09/15 10:14:56;;;;;;;6.93;1.35;;;16.00;99.90;;;;;;5014152;28;20038;-73
2022/09/15 10:17:43;;;;;;;7.22;1.70;;;16.10;99.90;;;;;;5012957;28;20052;-73
2022/09/15 10:20:31;;;;;;;6.65;1.77;;;16.10;99.90;;;;;;5013690;28;20076;-72
2022/09/15 10:23:20;;;;;;;6.55;1.50;;;16.10;99.90;;;;;;5017959;28;20096;-73
2022/09/15 10:25:46;;;;;;;5.35;1.50;;;16.20;99.90;;;;;;5013673;28;20538;-73
2022/09/15 10:28:17;;;;;;;10.70;2.15;;;16.30;99.90;;;;;;5025505;28;20073;-73
2022/09/15 10:31:00;;;;;;;7.25;1.80;;;16.40;99.90;;;;;;5008864;28;20114;-72
2022/09/15 10:33:27;;;;;;;;;;;16.40;99.90;;;;;;5029916;28;20087;-73
2022/09/15 10:35:59;;;;;;;8.07;1.55;;;16.30;99.90;;;;;;5029924;28;19925;-72
2022/09/15 10:38:30;;;;;;;6.90;1.80;;;16.20;99.90;;;;;;5012270;28;20052;-72
2022/09/15 10:41:08;;;;;;;10.35;2.00;;;16.10;99.90;;;;;;5026185;28;20127;-73
2022/09/15 10:44:04;;;;;;;6.55;1.42;;;16.00;99.90;;;;;;5038194;28;20261;-72
2022/09/15 10:46:50;;;;;;;6.57;1.85;;;15.80;99.90;;;;;;5018857;28;20047;-72
2022/09/15 10:49:37;;;;;;;6.35;1.50;;;15.60;99.90;;;;;;5020468;28;20081;-72
2022/09/15 10:52:45;;;;;;;7.93;1.83;;;15.50;99.90;;;;;;5029446;28;20073;-72
2022/09/15 10:55:43;;;;;;;5.18;1.60;;;15.30;99.90;;;;;;4990922;28;20045;-73
2022/09/15 10:58:27;;;;;;;6.45;1.52;;;15.20;99.90;;;;;;5020946;28;20056;-74
2022/09/15 11:01:04;;;;;;;10.85;2.03;;;15.10;99.90;;;;;;5027552;28;20049;-74
2022/09/15 11:04:00;;;;;;;12.73;2.47;;;15.10;99.90;;;;;;5029822;28;20041;-73
2022/09/15 11:06:48;;;;;;;6.38;1.55;;;15.20;99.90;;;;;;5031018;28;20041;-73
2022/09/15 11:09:22;;;;;;;13.30;2.15;;;15.30;99.90;;;;;;5011798;28;20500;-73
2022/09/15 11:12:06;;;;;;;6.72;1.60;;;15.50;99.90;;;;;;5029079;28;20115;-73
2022/09/15 11:14:50;;;;;;;6.90;1.80;;;15.70;99.90;;;;;;5029489;28;20052;-73
2022/09/15 11:17:43;;;;;;;5.10;1.33;;;15.80;99.90;;;;;;5012755;28;20099;-73
2022/09/15 11:20:12;;;;;;;;;;;15.90;99.90;;;;;;5029463;28;20506;-73
2022/09/15 11:22:49;;;;;;;6.38;1.45;;;16.00;99.90;;;;;;5028001;28;20383;-74
2022/09/15 11:25:22;;;;;;;4.57;1.20;;;16.10;99.90;;;;;;5026654;28;20044;-72
2022/09/15 11:27:52;;;;;;;4.10;1.30;;;16.10;99.90;;;;;;5017111;28;20038;-73
2022/09/15 11:30:35;;;;;;;5.50;1.27;;;16.20;99.90;;;;;;5030236;28;20411;-72
2022/09/15 11:33:16;;;;;;;6.35;1.42;;;16.40;99.90;;;;;;5011952;28;20049;-73
2022/09/15 11:35:55;;;;;;;8.10;1.45;;;16.40;99.90;;;;;;5011658;28;20170;-72
2022/09/15 11:38:47;;;;;;;7.47;1.85;;;16.50;99.90;;;;;;5013227;28;20513;-72
2022/09/15 11:41:27;;;;;;;4.18;1.30;;;16.60;99.90;;;;;;5029381;28;20053;-72
2022/09/15 11:43:52;;;;;;;7.63;1.40;;;16.80;99.90;;;;;;5030157;28;20466;-72
2022/09/15 11:46:34;;;;;;;8.18;1.33;;;16.90;99.90;;;;;;5029026;28;20080;-73
2022/09/15 11:49:08;;;;;;;7.10;1.58;;;17.20;99.90;;;;;;5029096;28;20412;-72
2022/09/15 11:51:41;;;;;;;5.18;1.20;;;17.30;99.90;;;;;;5028887;28;20419;-73
2022/09/15 11:54:35;;;;;;;6.57;1.60;;;17.40;99.90;;;;;;5027940;28;20080;-71
2022/09/15 11:57:01;;;;;;;10.13;1.70;;;17.50;99.90;;;;;;5021537;28;20107;-73
2022/09/15 11:59:49;;;;;;;6.47;1.55;;;17.60;99.90;;;;;;5018937;28;20247;-72
2022/09/15 12:02:24;;;;;;;7.80;1.70;;;17.60;99.90;;;;;;5011846;28;20049;-73
2022/09/15 12:05:11;;;;;;;10.25;1.60;;;17.40;99.90;;;;;;5027052;28;20073;-73
2022/09/15 12:07:47;;;;;;;7.18;1.60;;;17.30;99.90;;;;;;5027282;28;20107;-72
2022/09/15 12:10:30;;;;;;;4.05;1.33;;;17.20;99.90;;;;;;5030079;28;20049;-73
2022/09/15 12:12:58;;;;;;;4.93;1.30;;;17.30;99.90;;;;;;5027777;28;20049;-73
2022/09/15 12:15:28;;;;;;;7.75;1.50;;;17.30;99.90;;;;;;5042185;28;20053;-72
2022/09/15 12:18:21;;;;;;;8.18;1.67;;;17.50;99.90;;;;;;5006799;28;20357;-72
2022/09/15 12:21:32;;;;;;;5.93;1.42;;;17.40;99.90;;;;;;5017362;28;20053;-72
2022/09/15 12:24:07;;;;;;;4.88;1.40;;;17.30;99.90;;;;;;5010473;28;20495;-73
2022/09/15 12:26:33;;;;;;;5.47;1.50;;;17.50;99.90;;;;;;5011872;28;20125;-73
2022/09/15 12:29:01;;;;;;;6.28;1.50;;;17.70;99.90;;;;;;5027412;28;20120;-73
2022/09/15 12:31:38;;;;;;;7.97;1.30;;;17.80;99.90;;;;;;5029775;28;20076;-73
2022/09/15 12:34:05;;;;;;;7.97;1.60;;;17.70;99.90;;;;;;5012033;28;20463;-73
2022/09/15 12:36:35;;;;;;;5.13;1.20;;;17.60;99.90;;;;;;5027364;28;20051;-72
2022/09/15 12:39:23;;;;;;;7.75;1.50;;;17.70;99.90;;;;;;5027234;28;20033;-73
2022/09/15 12:41:55;;;;;;;6.03;1.60;;;17.70;99.90;;;;;;5020689;28;20045;-72
2022/09/15 12:44:33;;;;;;;6.60;1.52;;;17.80;99.90;;;;;;5028266;28;20095;-71
2022/09/15 12:47:02;;;;;;;5.68;1.30;;;17.90;99.90;;;;;;5027774;28;20062;-72
2022/09/15 12:49:35;;;;;;;5.65;1.70;;;18.20;99.90;;;;;;5014560;28;20042;-71
2022/09/15 12:52:04;;;;;;;;;;;18.30;99.90;;;;;;5028759;28;20060;-71
2022/09/15 12:54:32;;;;;;;5.38;1.20;;;18.10;99.90;;;;;;5011313;28;19928;-72
2022/09/15 12:56:59;;;;;;;6.88;1.60;;;18.10;99.90;;;;;;5026307;28;20056;-71
2022/09/15 12:59:27;;;;;;;7.32;1.50;;;18.10;99.90;;;;;;5010275;28;20080;-72
2022/09/15 13:01:54;;;;;;;6.05;1.58;;;18.00;99.90;;;;;;5029243;28;20427;-72
2022/09/15 13:04:45;;;;;;;6.38;1.92;;;18.00;99.90;;;;;;5011368;28;20049;-73
2022/09/15 13:07:20;;;;;;;10.23;1.80;;;17.80;99.90;;;;;;5010851;28;20120;-72
2022/09/15 13:09:57;;;;;;;8.27;1.70;;;17.70;99.90;;;;;;5028137;28;20457;-72